Time;durP1;ratioP1;P1;durP2;ratioP2;P2;SDS_P1;SDS_P2;PMS_P1;PMS_P2;Temp;Humidity;BMP_temperature;BMP_pressure;BME280_temperature;BME280_humidity;BME280_pressure;Samples;Min_cycle;Max_cycle;Signal;HPM_P1;HPM_P2
2022/02/06 00:01:12;;;;;;;8.70;3.28;;;4.50;99.90;;;;;;5004923;28;20046;-71
2022/02/06 00:03:40;;;;;;;9.20;3.58;;;4.60;99.90;;;;;;5005038;28;20081;-71
2022/02/06 00:06:07;;;;;;;9.00;4.18;;;4.60;99.90;;;;;;5004441;28;20505;-71
2022/02/06 00:08:37;;;;;;;6.68;3.25;;;4.60;99.90;;;;;;5007829;28;20050;-72
2022/02/06 00:11:05;;;;;;;9.70;4.32;;;4.60;99.90;;;;;;5024290;28;20055;-72
2022/02/06 00:13:32;;;;;;;6.70;3.50;;;4.60;99.90;;;;;;5024794;28;20140;-71
2022/02/06 00:15:59;;;;;;;10.63;4.35;;;4.60;99.90;;;;;;5023682;28;20083;-71
2022/02/06 00:18:26;;;;;;;9.13;3.78;;;4.50;99.90;;;;;;5022215;28;20165;-71
2022/02/06 00:21:00;;;;;;;6.90;3.03;;;4.50;99.90;;;;;;5003910;28;20041;-71
2022/02/06 00:23:29;;;;;;;12.43;5.28;;;4.60;99.90;;;;;;5005076;28;20077;-71
2022/02/06 00:31:09;;;;;;;7.10;2.90;;;4.60;99.90;;;;;;5004404;28;20140;-71
2022/02/06 00:33:43;;;;;;;11.55;3.53;;;4.60;99.90;;;;;;5004956;28;20624;-72
2022/02/06 00:39:04;;;;;;;;;;;4.70;99.90;;;;;;5012836;28;20136;-71
2022/02/06 00:41:33;;;;;;;9.43;3.78;;;4.60;99.90;;;;;;5021700;28;19921;-72
2022/02/06 00:44:04;;;;;;;11.38;4.15;;;4.70;99.90;;;;;;5026551;28;20108;-72
2022/02/06 00:46:35;;;;;;;9.98;2.85;;;4.70;99.90;;;;;;5025062;28;20785;-71
2022/02/06 00:49:12;;;;;;;13.95;3.53;;;4.60;99.90;;;;;;5004189;28;20060;-71
2022/02/06 00:51:53;;;;;;;8.00;2.67;;;4.70;99.90;;;;;;5002329;28;20053;-71
2022/02/06 00:54:19;;;;;;;5.32;3.17;;;4.70;99.90;;;;;;4984803;28;20050;-72
2022/02/06 00:56:46;;;;;;;6.93;3.15;;;4.70;99.90;;;;;;4982903;28;20077;-71
2022/02/06 00:59:13;;;;;;;8.55;3.42;;;4.70;99.90;;;;;;4983305;28;20149;-71
2022/02/06 01:01:42;;;;;;;7.18;2.50;;;4.70;99.90;;;;;;4999891;28;20132;-70
2022/02/06 01:04:10;;;;;;;6.82;3.03;;;4.70;99.90;;;;;;5004300;28;20455;-71
2022/02/06 01:06:37;;;;;;;3.50;2.47;;;4.70;99.90;;;;;;5002252;28;20146;-70
2022/02/06 01:09:05;;;;;;;5.35;2.58;;;4.60;99.90;;;;;;5013712;28;20077;-70
2022/02/06 01:11:34;;;;;;;4.82;2.58;;;4.60;99.90;;;;;;5014742;28;20156;-70
2022/02/06 01:20:09;;;;;;;3.67;2.50;;;4.60;99.90;;;;;;5020421;28;20045;-74
2022/02/06 01:22:32;;;;;;;2.40;2.20;;;4.70;99.90;;;;;;5018028;28;20045;-73
2022/02/06 01:25:10;;;;;;;5.85;2.00;;;4.60;99.90;;;;;;5004149;28;20179;-74
2022/02/06 01:27:51;;;;;;;5.00;2.22;;;4.60;99.90;;;;;;5028261;28;20076;-73
2022/02/06 01:30:22;;;;;;;4.82;1.95;;;4.60;99.90;;;;;;5040267;28;20103;-73
2022/02/06 01:32:54;;;;;;;2.58;1.80;;;4.60;99.90;;;;;;5020857;28;20053;-73
2022/02/06 01:35:30;;;;;;;9.15;2.33;;;4.60;99.90;;;;;;5021025;28;20054;-73
2022/02/06 01:38:09;;;;;;;3.92;1.65;;;4.60;99.90;;;;;;5021495;28;20459;-73
2022/02/06 01:43:15;;;;;;;2.35;1.80;;;4.60;99.90;;;;;;5020689;28;20049;-73
2022/02/06 02:43:31;;;;;;;4.70;2.63;;;4.90;99.90;;;;;;5017061;28;20107;-74
2022/02/06 02:48:25;;;;;;;3.90;2.53;;;4.90;99.90;;;;;;5020226;28;20136;-74
2022/02/06 02:50:58;;;;;;;11.60;2.95;;;4.90;99.90;;;;;;5018940;28;20091;-74
2022/02/06 02:53:34;;;;;;;6.57;3.58;;;4.90;99.90;;;;;;5018422;28;20045;-74
2022/02/06 03:01:25;;;;;;;5.75;3.10;;;5.00;99.90;;;;;;5020157;28;20045;-74
2022/02/06 03:03:51;;;;;;;4.40;3.38;;;5.00;99.90;;;;;;4996091;28;20425;-74
2022/02/06 03:06:19;;;;;;;10.95;3.88;;;5.00;99.90;;;;;;5008837;28;20057;-74
2022/02/06 03:08:47;;;;;;;7.47;4.05;;;5.10;99.90;;;;;;5017705;28;20369;-74
2022/02/06 03:11:14;;;;;;;12.18;4.40;;;5.10;99.90;;;;;;5017610;28;20057;-74
2022/02/06 03:13:56;;;;;;;7.38;3.60;;;5.10;99.90;;;;;;5018634;28;20128;-74
2022/02/06 03:16:27;;;;;;;7.38;3.17;;;5.10;99.90;;;;;;5020433;28;20123;-74
2022/02/06 03:21:31;;;;;;;10.43;3.80;;;5.10;99.90;;;;;;5024495;28;20417;-74
2022/02/06 03:24:09;;;;;;;10.85;3.00;;;5.10;99.90;;;;;;5021745;28;20483;-74
2022/02/06 03:26:36;;;;;;;5.10;3.72;;;5.10;99.90;;;;;;5021919;28;20751;-74
2022/02/06 03:29:03;;;;;;;7.47;3.65;;;5.10;99.90;;;;;;5022205;28;20429;-74
2022/02/06 03:31:30;;;;;;;5.43;3.38;;;5.10;99.90;;;;;;5022094;28;20132;-75
2022/02/06 03:33:57;;;;;;;6.25;2.85;;;5.00;99.90;;;;;;5024129;28;20348;-74
2022/02/06 03:36:24;;;;;;;4.18;2.75;;;5.10;99.90;;;;;;5006067;28;20054;-74
2022/02/06 03:38:53;;;;;;;6.50;2.83;;;5.10;99.90;;;;;;5025564;28;20115;-74
2022/02/06 03:41:21;;;;;;;5.80;3.78;;;5.10;99.90;;;;;;5023106;28;20229;-74
2022/02/06 03:48:59;;;;;;;6.33;2.03;;;5.10;99.90;;;;;;5013334;28;20518;-74
2022/02/06 03:51:30;;;;;;;8.63;2.90;;;5.10;99.90;;;;;;5021683;28;20065;-74
2022/02/06 03:53:57;;;;;;;6.30;2.60;;;5.10;99.90;;;;;;5021701;28;20155;-74
2022/02/06 03:56:26;;;;;;;3.85;2.28;;;5.10;99.90;;;;;;5022151;28;20656;-74
2022/02/06 03:58:53;;;;;;;4.05;2.47;;;5.10;99.90;;;;;;5004313;28;20049;-74
2022/02/06 04:01:20;;;;;;;7.28;3.15;;;5.10;99.90;;;;;;5023244;28;20048;-74
2022/02/06 04:03:47;;;;;;;5.78;2.17;;;5.10;99.90;;;;;;5021759;28;20049;-74
2022/02/06 04:06:14;;;;;;;4.07;2.47;;;5.00;99.90;;;;;;5021208;28;20135;-73
2022/02/06 04:08:42;;;;;;;3.30;2.45;;;5.00;99.90;;;;;;5005287;28;20068;-74
2022/02/06 04:11:15;;;;;;;6.95;2.42;;;5.00;99.90;;;;;;5022112;28;20049;-74
2022/02/06 04:13:55;;;;;;;4.50;1.70;;;5.00;99.90;;;;;;5022105;28;20181;-74
2022/02/06 04:16:36;;;;;;;2.97;1.95;;;5.00;99.90;;;;;;5021760;28;20049;-74
2022/02/06 04:19:45;;;;;;;6.15;2.33;;;5.00;99.90;;;;;;5020865;28;20133;-75
2022/02/06 04:21:54;;;;;;;4.15;2.20;;;5.00;99.90;;;;;;5019404;28;20519;-75
2022/02/06 04:24:21;;;;;;;3.92;1.88;;;5.00;99.90;;;;;;5022059;28;20525;-75
2022/02/06 04:26:49;;;;;;;2.25;1.80;;;5.00;99.90;;;;;;5013583;28;20049;-74
2022/02/06 04:29:16;;;;;;;3.28;1.80;;;4.90;99.90;;;;;;5035116;28;20621;-74
2022/02/06 04:31:44;;;;;;;3.05;1.70;;;5.00;99.90;;;;;;5017531;28;20092;-74
2022/02/06 04:34:11;;;;;;;4.15;2.17;;;4.90;99.90;;;;;;5001533;28;20388;-75
2022/02/06 04:36:50;;;;;;;4.43;2.28;;;5.00;99.90;;;;;;5004037;28;20059;-74
2022/02/06 04:52:57;;;;;;;4.85;2.13;;;4.90;99.90;;;;;;5021013;28;20543;-74
2022/02/06 05:17:04;;;;;;;3.42;2.47;;;4.90;99.90;;;;;;5035159;28;20077;-73
2022/02/06 05:22:46;;;;;;;;;;;5.00;99.90;;;;;;5020344;28;20060;-73
2022/02/06 05:30:09;;;;;;;2.08;1.90;;;5.00;99.90;;;;;;5010336;28;20251;-74
2022/02/06 05:32:39;;;;;;;2.85;2.03;;;5.00;99.90;;;;;;5020260;28;20060;-74
2022/02/06 05:35:07;;;;;;;3.17;1.63;;;5.10;99.90;;;;;;5019488;28;20049;-74
2022/02/06 05:37:35;;;;;;;3.65;1.60;;;5.10;99.90;;;;;;5018777;28;20575;-74
2022/02/06 05:40:02;;;;;;;2.63;2.00;;;5.10;99.90;;;;;;5018514;28;20045;-74
2022/02/06 05:42:29;;;;;;;1.98;1.67;;;5.10;99.90;;;;;;5020121;28;20046;-74
2022/02/06 05:44:56;;;;;;;3.63;2.08;;;5.10;99.90;;;;;;5020124;28;20372;-74
2022/02/06 05:47:24;;;;;;;3.08;1.92;;;5.20;99.90;;;;;;5019769;28;20115;-75
2022/02/06 05:49:51;;;;;;;4.85;2.42;;;5.20;99.90;;;;;;5020058;28;20088;-75
2022/02/06 05:52:19;;;;;;;2.92;1.88;;;5.20;99.90;;;;;;5020482;28;20589;-75
2022/02/06 05:54:47;;;;;;;3.63;1.35;;;5.20;99.90;;;;;;5022839;28;20212;-75
2022/02/06 05:57:14;;;;;;;5.70;1.98;;;5.10;99.90;;;;;;5020239;28;20065;-74
2022/02/06 05:59:41;;;;;;;4.25;1.88;;;5.10;99.90;;;;;;5020284;28;20478;-74
2022/02/06 06:02:07;;;;;;;3.42;2.75;;;5.10;99.90;;;;;;5018970;28;20546;-75
2022/02/06 06:04:34;;;;;;;6.70;2.17;;;5.20;99.90;;;;;;5021059;28;20073;-74
2022/02/06 06:07:04;;;;;;;3.63;2.00;;;5.10;99.90;;;;;;5018792;28;20183;-74
2022/02/06 06:09:32;;;;;;;9.80;2.15;;;5.10;99.90;;;;;;5018675;28;20069;-75
2022/02/06 06:11:59;;;;;;;6.13;2.60;;;5.10;99.90;;;;;;5018398;28;20147;-74
2022/02/06 06:14:31;;;;;;;5.13;3.20;;;5.10;99.90;;;;;;5021268;28;20084;-75
2022/02/06 06:16:58;;;;;;;4.07;1.75;;;5.10;99.90;;;;;;5016336;28;20111;-75
2022/02/06 06:19:25;;;;;;;3.38;1.60;;;5.10;99.90;;;;;;5017616;28;20096;-75
2022/02/06 06:21:55;;;;;;;2.83;1.23;;;5.10;99.90;;;;;;5000817;28;20193;-75
2022/02/06 06:24:24;;;;;;;2.33;1.33;;;5.20;99.90;;;;;;5031685;28;20329;-75
2022/02/06 06:26:51;;;;;;;2.83;1.38;;;5.20;99.90;;;;;;4998478;28;20472;-75
2022/02/06 06:29:18;;;;;;;2.88;1.10;;;5.10;99.90;;;;;;4998397;28;20590;-75
2022/02/06 06:31:47;;;;;;;3.88;1.70;;;5.20;99.90;;;;;;5012411;28;20144;-74
2022/02/06 06:34:14;;;;;;;3.17;1.30;;;5.10;99.90;;;;;;5002545;28;20377;-74
2022/02/06 06:36:46;;;;;;;2.42;1.13;;;5.10;99.90;;;;;;5016761;28;20438;-75
2022/02/06 06:39:17;;;;;;;2.38;1.45;;;5.10;99.90;;;;;;5019289;28;20041;-74
2022/02/06 06:41:57;;;;;;;3.17;1.08;;;5.10;99.90;;;;;;5018590;28;20095;-74
2022/02/06 06:44:24;;;;;;;3.10;1.85;;;5.10;99.90;;;;;;5018490;28;20081;-74
2022/02/06 06:46:51;;;;;;;2.75;1.52;;;5.10;99.90;;;;;;5017201;28;20471;-75
2022/02/06 06:49:18;;;;;;;1.63;1.40;;;5.20;99.90;;;;;;5018795;28;20085;-75
2022/02/06 06:51:45;;;;;;;1.90;1.67;;;5.20;99.90;;;;;;5016817;28;20057;-75
2022/02/06 06:54:18;;;;;;;5.97;1.77;;;5.20;99.90;;;;;;5018555;28;20049;-75
2022/02/06 06:56:55;;;;;;;1.90;1.50;;;5.20;99.90;;;;;;5017358;28;20460;-75
2022/02/06 07:04:44;;;;;;;3.92;1.48;;;5.20;99.90;;;;;;5031033;28;20484;-75
2022/02/06 07:07:10;;;;;;;1.80;1.52;;;5.30;99.90;;;;;;5011266;28;20676;-75
2022/02/06 07:09:37;;;;;;;3.00;1.65;;;5.30;99.90;;;;;;5017823;28;20046;-75
2022/02/06 07:12:06;;;;;;;3.20;1.80;;;5.30;99.90;;;;;;5021847;28;20677;-74
2022/02/06 07:14:33;;;;;;;2.53;1.75;;;5.30;99.90;;;;;;5019742;28;20104;-75
2022/02/06 07:16:59;;;;;;;2.58;1.70;;;5.30;99.90;;;;;;5018405;28;20588;-75
2022/02/06 07:19:26;;;;;;;4.53;1.73;;;5.40;99.90;;;;;;5026906;23;20058;-74
2022/02/06 07:21:54;;;;;;;1.52;1.20;;;5.40;99.90;;;;;;4984129;28;20057;-72
2022/02/06 07:24:21;;;;;;;1.33;1.23;;;5.40;99.90;;;;;;4981206;28;20108;-75
2022/02/06 07:26:51;;;;;;;2.55;1.80;;;5.50;99.90;;;;;;4994965;28;20076;-74
2022/02/06 07:29:18;;;;;;;2.67;1.70;;;5.60;99.90;;;;;;4982080;28;20081;-74
2022/02/06 07:31:46;;;;;;;3.03;1.52;;;5.50;99.90;;;;;;4980310;28;20108;-73
2022/02/06 07:34:13;;;;;;;2.65;1.52;;;5.50;99.90;;;;;;4979167;28;20047;-72
2022/02/06 07:36:40;;;;;;;3.17;1.48;;;5.60;99.90;;;;;;4980678;28;20822;-74
2022/02/06 07:39:06;;;;;;;3.97;1.42;;;5.60;99.90;;;;;;4990554;28;20056;-74
2022/02/06 07:41:33;;;;;;;2.67;1.77;;;5.70;99.90;;;;;;4995061;28;20081;-74
2022/02/06 07:44:00;;;;;;;1.75;1.63;;;5.70;99.90;;;;;;4986477;28;20464;-74
2022/02/06 07:46:37;;;;;;;2.00;1.23;;;5.70;99.90;;;;;;4980582;28;20050;-73
2022/02/06 07:49:05;;;;;;;1.50;1.02;;;5.70;99.90;;;;;;4979777;28;20145;-74
2022/02/06 07:51:34;;;;;;;1.92;1.20;;;5.70;99.90;;;;;;4980383;28;20254;-73
2022/02/06 07:54:02;;;;;;;1.45;1.23;;;5.80;99.90;;;;;;4981512;28;20145;-74
2022/02/06 07:56:30;;;;;;;2.03;1.75;;;5.80;99.90;;;;;;4979343;28;20047;-73
2022/02/06 07:58:58;;;;;;;4.97;1.25;;;5.80;99.90;;;;;;4980221;28;20073;-73
2022/02/06 08:01:26;;;;;;;1.23;1.05;;;5.80;99.90;;;;;;4981960;28;20046;-73
2022/02/06 08:03:53;;;;;;;1.08;0.98;;;5.80;99.90;;;;;;4982665;28;20057;-73
2022/02/06 08:06:20;;;;;;;1.10;0.90;;;5.80;99.90;;;;;;4984821;28;20229;-74
2022/02/06 08:08:47;;;;;;;1.10;0.82;;;5.80;99.90;;;;;;4991236;28;20053;-74
2022/02/06 08:11:15;;;;;;;1.63;1.00;;;5.80;99.90;;;;;;4996739;28;20049;-74
2022/02/06 08:13:52;;;;;;;0.80;0.80;;;5.80;99.90;;;;;;4985197;28;20082;-74
2022/02/06 08:16:18;;;;;;;2.15;1.30;;;5.80;99.90;;;;;;4983249;28;20209;-74
2022/02/06 08:18:45;;;;;;;1.48;1.30;;;5.80;99.90;;;;;;4983203;28;20145;-73
2022/02/06 08:21:12;;;;;;;0.90;0.70;;;5.70;99.90;;;;;;4982944;28;20262;-73
2022/02/06 08:23:44;;;;;;;1.90;0.90;;;5.80;99.90;;;;;;4983443;28;20046;-73
2022/02/06 08:26:11;;;;;;;0.98;0.80;;;5.80;99.90;;;;;;4981917;28;20053;-73
2022/02/06 08:28:39;;;;;;;1.63;1.25;;;5.80;99.90;;;;;;4984399;28;20129;-73
2022/02/06 08:31:06;;;;;;;0.80;0.80;;;5.70;99.90;;;;;;4982763;28;20500;-73
2022/02/06 08:33:32;;;;;;;4.97;0.90;;;5.70;99.90;;;;;;4984364;28;20126;-73
2022/02/06 08:36:00;;;;;;;2.00;1.10;;;5.70;99.90;;;;;;4982734;28;20065;-73
2022/02/06 08:38:28;;;;;;;0.70;0.70;;;5.70;99.90;;;;;;4982238;28;20212;-73
2022/02/06 08:40:55;;;;;;;0.95;0.82;;;5.70;99.90;;;;;;4982260;28;20052;-73
2022/02/06 08:43:22;;;;;;;1.85;1.20;;;5.70;99.90;;;;;;4982688;28;20048;-73
2022/02/06 08:45:48;;;;;;;2.15;1.88;;;5.80;99.90;;;;;;4980734;28;20472;-73
2022/02/06 08:48:16;;;;;;;0.80;0.80;;;5.80;99.90;;;;;;4983209;28;20050;-73
2022/02/06 08:50:43;;;;;;;4.22;0.90;;;5.70;99.90;;;;;;4981390;28;20194;-73
2022/02/06 08:53:10;;;;;;;1.30;1.00;;;5.70;99.90;;;;;;4983828;28;20129;-73
2022/02/06 08:55:37;;;;;;;2.03;1.60;;;5.70;99.90;;;;;;4983952;28;20145;-74
2022/02/06 08:58:04;;;;;;;1.98;1.48;;;5.70;99.90;;;;;;4983106;28;20404;-74
2022/02/06 09:00:31;;;;;;;3.53;2.00;;;5.70;99.90;;;;;;4983408;28;20474;-74
2022/02/06 09:02:58;;;;;;;1.10;0.93;;;5.80;99.90;;;;;;4983509;28;20374;-74
2022/02/06 09:05:26;;;;;;;0.80;0.80;;;5.70;99.90;;;;;;4981774;28;20046;-74
2022/02/06 09:07:53;;;;;;;0.60;0.60;;;5.70;99.90;;;;;;4968067;28;20058;-74
2022/02/06 09:10:20;;;;;;;0.65;0.65;;;5.70;99.90;;;;;;4980334;28;20552;-74
2022/02/06 09:12:53;;;;;;;2.63;0.68;;;5.70;99.90;;;;;;4977872;28;20384;-73
2022/02/06 09:15:21;;;;;;;1.13;0.70;;;5.60;99.90;;;;;;4978226;28;20058;-73
2022/02/06 09:17:48;;;;;;;2.70;0.95;;;5.50;99.90;;;;;;4983740;28;20321;-74
2022/02/06 09:20:16;;;;;;;0.57;0.57;;;5.50;99.90;;;;;;4992373;28;20100;-74
2022/02/06 09:22:43;;;;;;;0.50;0.50;;;5.50;99.90;;;;;;4982234;28;20058;-73
2022/02/06 09:25:12;;;;;;;0.70;0.70;;;5.50;99.90;;;;;;4981016;28;20315;-73
2022/02/06 09:27:40;;;;;;;1.60;0.50;;;5.50;99.90;;;;;;4981035;28;20716;-73
2022/02/06 09:30:09;;;;;;;0.40;0.40;;;5.50;99.90;;;;;;4982484;28;20146;-74
2022/02/06 09:37:35;;;;;;;2.05;0.70;;;5.50;99.90;;;;;;4982498;28;20129;-73
2022/02/06 09:40:08;;;;;;;0.77;0.60;;;5.50;99.90;;;;;;4979634;28;20058;-74
2022/02/06 09:42:36;;;;;;;1.88;1.23;;;5.40;99.90;;;;;;4981157;28;20042;-74
2022/02/06 09:45:04;;;;;;;2.30;1.23;;;5.40;99.90;;;;;;4982326;28;20141;-74
2022/02/06 09:47:31;;;;;;;1.45;1.17;;;5.40;99.90;;;;;;4978010;28;20468;-74
2022/02/06 09:49:59;;;;;;;1.02;0.85;;;5.40;99.90;;;;;;4982629;28;20555;-74
2022/02/06 09:52:28;;;;;;;0.70;0.70;;;5.50;99.90;;;;;;4981835;28;20057;-74
2022/02/06 09:55:07;;;;;;;2.58;1.48;;;5.50;99.90;;;;;;4982040;28;20061;-74
2022/02/06 09:57:51;;;;;;;1.65;0.80;;;5.50;99.90;;;;;;4979239;28;20531;-73
2022/02/06 10:00:23;;;;;;;0.75;0.50;;;5.50;99.90;;;;;;4981019;28;20583;-74
2022/02/06 10:02:52;;;;;;;2.63;1.20;;;5.50;99.90;;;;;;4980828;28;20141;-74
2022/02/06 10:05:20;;;;;;;2.20;0.85;;;5.50;99.90;;;;;;4981502;28;20112;-74
2022/02/06 10:07:58;;;;;;;1.10;1.00;;;5.50;99.90;;;;;;4977624;28;20407;-74
2022/02/06 10:10:26;;;;;;;2.00;1.00;;;5.60;99.90;;;;;;4980492;28;20555;-74
2022/02/06 10:12:58;;;;;;;0.90;0.90;;;5.60;99.90;;;;;;4989578;28;20038;-74
2022/02/06 10:15:25;;;;;;;0.60;0.60;;;5.50;99.90;;;;;;4976434;28;20074;-74
2022/02/06 10:17:51;;;;;;;1.23;0.90;;;5.50;99.90;;;;;;4980884;28;20547;-75
2022/02/06 10:20:23;;;;;;;2.13;0.90;;;5.60;99.90;;;;;;4981040;28;20077;-74
2022/02/06 10:22:59;;;;;;;2.00;1.45;;;5.60;99.90;;;;;;4976919;28;20050;-74
2022/02/06 10:25:26;;;;;;;1.75;1.08;;;5.60;99.90;;;;;;4981091;28;20138;-74
2022/02/06 10:30:44;;;;;;;0.77;0.63;;;5.60;99.90;;;;;;4981663;28;20090;-73
2022/02/06 10:33:16;;;;;;;1.73;0.80;;;5.60;99.90;;;;;;4982193;28;20541;-74
2022/02/06 10:35:45;;;;;;;3.35;1.70;;;5.60;99.90;;;;;;4981685;28;20137;-74
2022/02/06 10:38:15;;;;;;;4.60;1.80;;;5.60;99.90;;;;;;4981133;28;20042;-74
2022/02/06 10:40:43;;;;;;;1.08;0.80;;;5.60;99.90;;;;;;4988110;28;20129;-73
2022/02/06 10:43:11;;;;;;;1.00;0.90;;;5.60;99.90;;;;;;4980987;28;20544;-74
2022/02/06 10:45:38;;;;;;;1.98;1.10;;;5.60;99.90;;;;;;4977297;28;20060;-73
2022/02/06 10:48:23;;;;;;;3.50;3.20;;;5.60;99.90;;;;;;4989025;28;20050;-74
2022/02/06 10:50:50;;;;;;;2.03;1.45;;;5.60;99.90;;;;;;4999300;28;20057;-74
2022/02/06 10:53:17;;;;;;;3.22;1.60;;;5.60;99.90;;;;;;4981476;28;20114;-74
2022/02/06 10:56:02;;;;;;;1.48;1.38;;;5.60;99.90;;;;;;4980042;28;20081;-74
2022/02/06 10:58:35;;;;;;;2.03;1.00;;;5.60;99.90;;;;;;4982364;28;20050;-74
2022/02/06 11:01:21;;;;;;;1.30;0.95;;;5.60;99.90;;;;;;4982040;28;20054;-74
2022/02/06 11:03:51;;;;;;;0.60;0.57;;;5.60;99.90;;;;;;4982015;28;20109;-74
2022/02/06 11:06:42;;;;;;;0.77;0.70;;;5.70;99.90;;;;;;4975750;28;20047;-75
2022/02/06 11:09:26;;;;;;;1.88;1.40;;;5.60;99.90;;;;;;4977041;28;20158;-74
2022/02/06 11:12:00;;;;;;;1.50;0.70;;;5.60;99.90;;;;;;4994282;28;20137;-74
2022/02/06 11:14:30;;;;;;;2.60;1.08;;;5.60;99.90;;;;;;4981652;28;20057;-74
2022/02/06 11:16:59;;;;;;;2.35;1.67;;;5.60;99.90;;;;;;4995617;28;20050;-74
2022/02/06 11:19:27;;;;;;;2.00;1.80;;;5.60;99.90;;;;;;4978680;28;20057;-74
2022/02/06 11:22:10;;;;;;;1.42;1.27;;;5.60;99.90;;;;;;4979733;28;20117;-74
2022/02/06 11:24:44;;;;;;;1.85;1.50;;;5.70;99.90;;;;;;4979322;28;20097;-75
2022/02/06 11:27:10;;;;;;;0.90;0.77;;;5.70;99.90;;;;;;4979372;28;20137;-74
2022/02/06 11:29:38;;;;;;;1.00;0.75;;;5.70;99.90;;;;;;4978900;28;20092;-73
2022/02/06 11:32:05;;;;;;;2.78;2.28;;;5.70;99.90;;;;;;4979453;28;20054;-73
2022/02/06 11:34:32;;;;;;;2.58;1.73;;;5.70;99.90;;;;;;4980414;28;20501;-74
2022/02/06 11:43:46;;;;;;;1.60;1.50;;;5.70;99.90;;;;;;4943039;29;20665;-73
2022/02/06 11:46:21;;;;;;;1.48;1.38;;;5.70;99.90;;;;;;4956952;28;20058;-73
2022/02/06 11:48:49;;;;;;;1.05;0.95;;;5.70;99.90;;;;;;4963229;28;20145;-73
2022/02/06 11:51:20;;;;;;;1.02;1.02;;;5.70;99.90;;;;;;4972093;28;20390;-73
2022/02/06 11:53:47;;;;;;;1.00;1.00;;;5.70;99.90;;;;;;4983925;28;20142;-73
2022/02/06 11:56:33;;;;;;;1.45;1.05;;;5.70;99.90;;;;;;4981948;28;20081;-73
2022/02/06 11:59:11;;;;;;;2.35;1.30;;;5.70;99.90;;;;;;4982051;28;20614;-73
2022/02/06 12:01:41;;;;;;;0.90;0.90;;;5.70;99.90;;;;;;4969679;28;20082;-74
2022/02/06 12:04:28;;;;;;;2.65;1.20;;;5.60;99.90;;;;;;4964760;28;20055;-73
2022/02/06 12:06:57;;;;;;;1.63;1.52;;;5.60;99.90;;;;;;4953818;28;20185;-73
2022/02/06 12:09:29;;;;;;;1.55;1.45;;;5.60;99.90;;;;;;4964157;28;20054;-73
2022/02/06 12:12:05;;;;;;;0.80;0.80;;;5.60;99.90;;;;;;4948358;28;20058;-75
2022/02/06 12:14:38;;;;;;;0.82;0.82;;;5.50;99.90;;;;;;4945010;28;20118;-73
2022/02/06 12:17:24;;;;;;;0.73;0.73;;;5.50;99.90;;;;;;4956323;28;20105;-74
2022/02/06 12:20:24;;;;;;;0.60;0.60;;;5.50;99.90;;;;;;4963692;28;20485;-73
2022/02/06 12:22:51;;;;;;;0.60;0.60;;;5.50;99.90;;;;;;4939631;29;20118;-73
2022/02/06 12:25:33;;;;;;;0.70;0.70;;;5.50;99.90;;;;;;4953466;28;20395;-73
2022/02/06 12:28:17;;;;;;;0.65;0.65;;;5.50;99.90;;;;;;4942465;28;20071;-73
2022/02/06 12:30:45;;;;;;;0.65;0.65;;;5.50;99.90;;;;;;4944689;28;20089;-74
2022/02/06 12:33:28;;;;;;;1.13;0.70;;;5.40;99.90;;;;;;4961021;28;20413;-73
2022/02/06 12:38:45;;;;;;;5.55;2.65;;;5.30;99.90;;;;;;4950028;28;20102;-74
2022/02/06 12:41:30;;;;;;;1.00;0.93;;;5.40;99.90;;;;;;4952269;28;20130;-73
2022/02/06 12:44:04;;;;;;;1.00;0.85;;;5.30;99.90;;;;;;4945413;28;20075;-73
2022/02/06 12:46:31;;;;;;;0.93;0.85;;;5.40;99.90;;;;;;4946272;28;20042;-73
2022/02/06 12:49:03;;;;;;;1.48;1.00;;;5.40;99.90;;;;;;4952834;28;20281;-73
2022/02/06 12:51:32;;;;;;;1.48;1.38;;;5.30;99.90;;;;;;4963713;28;20153;-73
2022/02/06 12:54:03;;;;;;;1.35;1.25;;;5.30;99.90;;;;;;4957536;28;20079;-74
2022/02/06 12:56:31;;;;;;;0.73;0.55;;;5.30;99.90;;;;;;4958104;28;20055;-73
2022/02/06 12:59:00;;;;;;;0.95;0.90;;;5.30;99.90;;;;;;4962972;28;20326;-74
2022/02/06 13:01:38;;;;;;;1.90;1.25;;;5.30;99.90;;;;;;4960619;28;20051;-73
2022/02/06 13:04:06;;;;;;;2.45;0.80;;;5.30;99.90;;;;;;4971820;28;20169;-73
2022/02/06 13:06:41;;;;;;;1.70;1.50;;;5.30;99.90;;;;;;4983387;28;20346;-74
2022/02/06 13:09:19;;;;;;;1.08;1.00;;;5.30;99.90;;;;;;4981340;28;20046;-73
2022/02/06 13:11:53;;;;;;;0.80;0.80;;;5.30;99.90;;;;;;4977519;28;20512;-73
2022/02/06 13:22:43;;;;;;;1.98;1.20;;;5.20;99.90;;;;;;4997501;28;20084;-76
2022/02/06 13:28:04;;;;;;;1.02;0.98;;;5.20;99.90;;;;;;4999711;28;20096;-76
2022/02/06 13:39:00;;;;;;;0.80;0.70;;;5.20;99.90;;;;;;4991681;28;20091;-75
2022/02/06 13:41:31;;;;;;;0.60;0.60;;;5.20;99.90;;;;;;4986335;28;20112;-75
2022/02/06 13:44:00;;;;;;;0.95;0.77;;;5.20;99.90;;;;;;4980696;28;20050;-76
2022/02/06 13:46:32;;;;;;;1.27;1.17;;;5.10;99.90;;;;;;4981261;28;20713;-74
2022/02/06 13:49:00;;;;;;;0.88;0.88;;;5.20;99.90;;;;;;4994763;28;20409;-75
2022/02/06 13:51:41;;;;;;;1.80;1.00;;;5.10;99.90;;;;;;4980781;28;20084;-75
2022/02/06 13:54:09;;;;;;;0.90;0.52;;;5.10;99.90;;;;;;4982265;28;20097;-75
2022/02/06 13:56:43;;;;;;;0.75;0.55;;;5.10;99.90;;;;;;4966815;28;20282;-74
2022/02/06 13:59:14;;;;;;;1.48;0.90;;;5.10;99.90;;;;;;4965522;28;20077;-75
2022/02/06 14:01:42;;;;;;;2.15;0.80;;;5.10;99.90;;;;;;4982725;28;20045;-74
2022/02/06 14:04:35;;;;;;;1.08;0.82;;;5.10;99.90;;;;;;5000543;28;20099;-74
2022/02/06 14:07:08;;;;;;;0.80;0.68;;;5.10;99.90;;;;;;4998725;28;20049;-74
2022/02/06 14:12:10;;;;;;;1.00;0.80;;;5.20;99.90;;;;;;5025365;28;20121;-77
2022/02/06 14:14:51;;;;;;;2.15;1.55;;;5.10;99.90;;;;;;5016225;28;20054;-75
2022/02/06 14:17:38;;;;;;;2.40;0.93;;;5.20;99.90;;;;;;5016866;28;20579;-76
2022/02/06 14:20:10;;;;;;;1.65;0.98;;;5.10;99.90;;;;;;5018261;28;20502;-75
2022/02/06 14:22:44;;;;;;;1.88;0.90;;;5.20;99.90;;;;;;5015066;28;20042;-76
2022/02/06 14:25:22;;;;;;;1.45;1.00;;;5.20;99.90;;;;;;5008583;28;20158;-75
2022/02/06 14:27:49;;;;;;;3.33;0.68;;;5.30;99.90;;;;;;5004292;28;20056;-76
2022/02/06 14:30:34;;;;;;;0.30;0.30;;;5.30;99.90;;;;;;5004811;28;20049;-76
2022/02/06 14:33:03;;;;;;;3.55;0.82;;;5.00;99.90;;;;;;4982923;28;20081;-76
2022/02/06 14:35:39;;;;;;;2.58;1.05;;;4.60;99.90;;;;;;4980023;28;20119;-75
2022/02/06 14:38:09;;;;;;;1.35;0.73;;;4.40;99.90;;;;;;4987721;28;20155;-75
2022/02/06 14:43:14;;;;;;;2.08;0.82;;;4.00;99.90;;;;;;5000146;28;20551;-75
2022/02/06 14:45:48;;;;;;;1.60;0.98;;;3.90;99.90;;;;;;4999103;28;20548;-75
2022/02/06 14:48:21;;;;;;;3.90;1.35;;;3.70;99.90;;;;;;4998358;28;20054;-74
2022/02/06 14:50:49;;;;;;;3.65;2.00;;;3.60;99.90;;;;;;4998129;28;20050;-75
2022/02/06 14:53:19;;;;;;;2.10;0.82;;;3.60;99.90;;;;;;4999316;28;20436;-76
2022/02/06 14:55:47;;;;;;;1.48;0.90;;;3.50;99.90;;;;;;4999743;28;20734;-75
2022/02/06 14:58:14;;;;;;;3.78;0.90;;;3.50;99.90;;;;;;4999651;28;20046;-75
2022/02/06 15:00:42;;;;;;;1.98;0.93;;;3.60;99.90;;;;;;4999492;28;20133;-74
2022/02/06 15:03:11;;;;;;;1.27;0.82;;;3.60;99.90;;;;;;4997559;28;20053;-74
2022/02/06 15:05:38;;;;;;;2.17;1.10;;;3.60;99.90;;;;;;4982379;28;20053;-74
2022/02/06 15:08:06;;;;;;;3.20;1.30;;;3.60;99.90;;;;;;4998855;28;20038;-74
2022/02/06 15:10:36;;;;;;;2.63;1.48;;;3.60;99.90;;;;;;5008269;28;20350;-74
2022/02/06 15:13:04;;;;;;;4.35;1.80;;;3.60;99.90;;;;;;5002628;28;20576;-74
2022/02/06 15:15:36;;;;;;;2.70;1.63;;;3.60;99.90;;;;;;5003837;28;20153;-74
2022/02/06 15:18:21;;;;;;;1.80;1.23;;;3.70;99.90;;;;;;5003132;28;20296;-74
2022/02/06 15:20:50;;;;;;;2.47;1.30;;;3.70;99.90;;;;;;4985644;28;20050;-74
2022/02/06 15:23:17;;;;;;;3.50;1.92;;;3.60;99.90;;;;;;5030763;28;20472;-74
2022/02/06 15:25:44;;;;;;;3.40;2.33;;;3.70;99.90;;;;;;5005231;28;20504;-74
2022/02/06 15:28:10;;;;;;;3.03;2.00;;;3.70;99.90;;;;;;5015625;28;20049;-74
2022/02/06 15:30:37;;;;;;;5.93;3.20;;;3.70;99.90;;;;;;5000380;28;20049;-74
2022/02/06 15:33:06;;;;;;;7.10;4.05;;;3.70;99.90;;;;;;5018323;28;20065;-74
2022/02/06 15:35:34;;;;;;;4.80;3.25;;;3.70;99.90;;;;;;5001973;28;20152;-74
2022/02/06 15:38:03;;;;;;;6.28;3.58;;;3.70;99.90;;;;;;5019565;28;20120;-74
2022/02/06 15:40:31;;;;;;;6.65;3.45;;;3.80;99.90;;;;;;5013098;28;20484;-73
2022/02/06 15:42:58;;;;;;;6.32;3.08;;;3.70;99.90;;;;;;5015254;28;20290;-74
2022/02/06 15:45:26;;;;;;;5.18;2.28;;;3.80;99.90;;;;;;5000595;28;20076;-73
2022/02/06 15:47:53;;;;;;;6.07;4.55;;;3.70;99.90;;;;;;4996961;28;20340;-74
2022/02/06 15:50:21;;;;;;;4.82;2.88;;;3.80;99.90;;;;;;5001824;28;20058;-74
2022/02/06 15:52:48;;;;;;;7.28;3.63;;;3.70;99.90;;;;;;5001104;28;20064;-74
2022/02/06 15:55:15;;;;;;;6.85;3.38;;;3.80;99.90;;;;;;5001662;28;20467;-74
2022/02/06 15:57:42;;;;;;;6.63;3.40;;;3.80;99.90;;;;;;5003387;28;20144;-74
2022/02/06 16:00:09;;;;;;;4.53;2.28;;;3.90;99.90;;;;;;5000884;28;20162;-74
2022/02/06 16:02:36;;;;;;;4.13;2.97;;;3.90;99.90;;;;;;5001869;28;20590;-74
2022/02/06 16:05:04;;;;;;;6.65;3.08;;;3.90;99.90;;;;;;5003272;28;20049;-76
2022/02/06 16:07:31;;;;;;;5.20;4.25;;;3.90;99.90;;;;;;5001886;28;20145;-76
2022/02/06 16:09:58;;;;;;;9.27;4.90;;;3.90;99.90;;;;;;4994421;28;20050;-76
2022/02/06 16:12:24;;;;;;;8.05;5.22;;;3.90;99.90;;;;;;5020000;28;20119;-75
2022/02/06 16:14:51;;;;;;;6.18;3.70;;;3.90;99.90;;;;;;5007699;28;20068;-75